Jenkintown, PA (19046)

7:38 PM EST on March 06, 2015 (GMT -0500)
Rydal | Change Station
CLOSE
Current Station
Personal Weather Station
Location: Jenkintown, PA
Elevation: 318 ft
Nearby Weather Stations

Elev 318 ft 40.10 °N, 75.10 °W | Updated 2 minutes ago

Clear
Clear
17.3 °F
Feels Like 17 °F
N
0.0
Wind Variable Wind from North
Gusts 0.0 mph

Today
High -- | Low -- °F
--% Chance of Precip.
Yesterday
High -- | Low -- °F
Precip. -- in
6:26 AM 5:57 PM
Full, 99% visible
Pressure 30.46 in
Visibility 10.0 miles
Clouds Clear
Windchill 17 °F
Dew Point 13 °F
Humidity 82%
Rainfall in
Snow Depth Not available.
UV 0 out of 12
Pollen .60 out of 12
Air Quality Not available.
Flu Activity Not available.
METAR KPNE 062354Z 00000KT 10SM CLR M04/M13 A3045 RMK AO2 SLP313 T10441133 11022 21044 56009

More Conditions Fewer Conditions

Pressure 30.46 in
Visibility 10.0 miles
Clouds Clear
Windchill 17 °F
Dew Point 13 °F
Humidity 82%
Rainfall in
Snow Depth Not available.
UV 0 out of 12
Pollen .60 out of 12
Air Quality Not available.
Flu Activity Not available.
METAR KPNE 062354Z 00000KT 10SM CLR M04/M13 A3045 RMK AO2 SLP313 T10441133 11022 21044 56009

More Conditions Fewer Conditions

10-Day Weather Forecast

Almanac

Astronomy

Mar. 06, 2015 Rise Set
Actual Time
Civil Twilight
Nautical Twilight
Astronomical Twilight
Moon
Length of Visible Light
Length of Day
Tomorrow will be .
, % of the Moon is Illuminated

Today's Extremes

State Highs State Lows

Community

WunderPhotos

Upload Photos

1,803,469 photos uploaded!

WunderBlogs® & News

Nearby

Air Quality

  Air Quality AQ Index Pollutant
Not available.

Snow Depth

Station Depth Elevation

Earthquake Activity

City Distance Mag. Time & Date
Minimum magnitude displayed is 2.5.

Coastal Water Temperatures

Place Temperature

Nearby Weather Stations